createdAt,value
2019-03-04T00:00:23.283Z,957.29
2019-03-04T00:01:33.213Z,957.3
2019-03-04T00:02:43.138Z,957.3
2019-03-04T00:03:53.066Z,957.29
2019-03-04T00:05:03.087Z,957.29
2019-03-04T00:06:13.010Z,957.26
2019-03-04T00:07:22.926Z,957.28
2019-03-04T00:08:33.034Z,957.27
2019-03-04T00:09:42.994Z,957.29
2019-03-04T00:10:53.010Z,957.23
2019-03-04T00:12:02.677Z,957.25
2019-03-04T00:13:12.621Z,957.19
2019-03-04T00:14:22.556Z,957.16
2019-03-04T00:15:32.474Z,957.2
2019-03-04T00:16:42.444Z,957.15
2019-03-04T00:17:52.365Z,957.17
2019-03-04T00:19:02.280Z,957.16
2019-03-04T00:20:12.199Z,957.14
2019-03-04T00:21:22.122Z,957.13
2019-03-04T00:22:32.153Z,957.15
2019-03-04T00:23:42.080Z,957.17
2019-03-04T00:24:51.994Z,957.14
2019-03-04T00:26:02.052Z,957.14
2019-03-04T00:27:11.730Z,957.12
2019-03-04T00:28:21.748Z,957.1
2019-03-04T00:29:31.675Z,957.11
2019-03-04T00:30:41.595Z,957.08
2019-03-04T00:31:51.519Z,957.04
2019-03-04T00:33:01.434Z,957.03
2019-03-04T00:34:11.109Z,957.02
2019-03-04T00:35:21.022Z,957
2019-03-04T00:36:30.939Z,956.99
2019-03-04T00:37:40.856Z,956.98
2019-03-04T00:38:50.781Z,956.98
2019-03-04T00:40:00.813Z,956.98
2019-03-04T00:41:10.728Z,956.98
2019-03-04T00:42:20.652Z,956.97
2019-03-04T00:43:30.325Z,957
2019-03-04T00:44:40.250Z,956.97
2019-03-04T00:45:50.265Z,956.95
2019-03-04T00:46:59.941Z,956.93
2019-03-04T00:48:09.867Z,956.92
2019-03-04T00:49:19.798Z,956.89
2019-03-04T00:50:29.715Z,956.87
2019-03-04T00:51:39.691Z,956.88
2019-03-04T00:52:49.616Z,956.9
2019-03-04T00:53:59.532Z,956.88
2019-03-04T00:55:09.458Z,956.88
2019-03-04T00:56:19.378Z,956.84
2019-03-04T00:57:29.346Z,956.81
2019-03-04T00:58:39.261Z,956.79
2019-03-04T00:59:48.932Z,956.76
2019-03-04T01:00:58.608Z,956.72
2019-03-04T01:02:08.526Z,956.76
2019-03-04T01:03:18.551Z,956.74
2019-03-04T01:04:28.547Z,956.71
2019-03-04T01:05:38.480Z,956.73
2019-03-04T01:06:48.398Z,956.73
2019-03-04T01:07:58.314Z,956.66
2019-03-04T01:09:08.238Z,956.64
2019-03-04T01:10:17.902Z,956.62
2019-03-04T01:11:27.826Z,956.62
2019-03-04T01:12:37.749Z,956.58
2019-03-04T01:13:47.671Z,956.55
2019-03-04T01:14:57.640Z,956.53
2019-03-04T01:16:07.560Z,956.54
2019-03-04T01:17:17.502Z,956.51
2019-03-04T01:18:27.420Z,956.49
2019-03-04T01:19:37.341Z,956.45
2019-03-04T01:20:47.368Z,956.48
2019-03-04T01:21:57.293Z,956.42
2019-03-04T01:23:07.214Z,956.47
2019-03-04T01:24:17.135Z,956.46
2019-03-04T01:25:27.055Z,956.5
2019-03-04T01:26:37.072Z,956.52
2019-03-04T01:27:47.027Z,956.5
2019-03-04T01:28:56.950Z,956.46
2019-03-04T01:30:06.877Z,956.51
2019-03-04T01:31:16.804Z,956.5
2019-03-04T01:32:26.824Z,956.52
2019-03-04T01:33:36.745Z,956.52
2019-03-04T01:34:46.665Z,956.5
2019-03-04T01:35:56.586Z,956.52
2019-03-04T01:37:06.568Z,956.49
2019-03-04T01:38:16.587Z,956.46
2019-03-04T01:39:26.503Z,956.45
2019-03-04T01:40:36.427Z,956.44
2019-03-04T01:41:46.340Z,956.44
2019-03-04T01:42:56.017Z,956.44
2019-03-04T01:44:06.068Z,956.42
2019-03-04T01:45:15.985Z,956.44
2019-03-04T01:46:25.920Z,956.41
2019-03-04T01:47:35.895Z,956.39
2019-03-04T01:48:45.815Z,956.43
2019-03-04T01:49:55.894Z,956.33
2019-03-04T01:51:05.809Z,956.35
2019-03-04T01:52:15.722Z,956.35
2019-03-04T01:53:25.645Z,956.34
2019-03-04T01:54:35.568Z,956.37
2019-03-04T01:55:45.534Z,956.33
2019-03-04T01:56:55.451Z,956.36
2019-03-04T01:58:05.376Z,956.31
2019-03-04T01:59:15.296Z,956.31
2019-03-04T02:00:25.223Z,956.27
2019-03-04T02:01:35.247Z,956.27
2019-03-04T02:02:45.167Z,956.21
2019-03-04T02:03:55.088Z,956.21
2019-03-04T02:05:05.002Z,956.17
2019-03-04T02:06:14.915Z,956.19
2019-03-04T02:07:24.934Z,956.23
2019-03-04T02:08:34.863Z,956.2
2019-03-04T02:09:44.781Z,956.18
2019-03-04T02:10:54.724Z,956.19
2019-03-04T02:12:04.651Z,956.19
2019-03-04T02:13:14.718Z,956.17
2019-03-04T02:14:24.638Z,956.18
2019-03-04T02:15:34.556Z,956.17
2019-03-04T02:16:44.483Z,956.12
2019-03-04T02:17:54.409Z,956.11
2019-03-04T02:19:04.481Z,956.15
2019-03-04T02:20:14.422Z,956.17
2019-03-04T02:21:24.358Z,956.09
2019-03-04T02:22:34.025Z,956.08
2019-03-04T02:23:43.947Z,956.03
2019-03-04T02:24:54.014Z,956.02
2019-03-04T02:26:03.931Z,955.98
2019-03-04T02:27:13.602Z,955.96
2019-03-04T02:28:23.518Z,955.98
2019-03-04T02:29:33.446Z,955.98
2019-03-04T02:30:43.544Z,955.97
2019-03-04T02:31:53.306Z,955.98
2019-03-04T02:33:03.015Z,955.94
2019-03-04T02:34:12.706Z,955.93
2019-03-04T02:35:22.397Z,955.89
2019-03-04T02:36:32.412Z,955.9
2019-03-04T02:37:42.102Z,955.89
2019-03-04T02:38:52.040Z,955.87
2019-03-04T02:40:01.990Z,955.88
2019-03-04T02:41:11.944Z,955.96
2019-03-04T02:42:21.979Z,955.94
2019-03-04T02:43:31.914Z,955.91
2019-03-04T02:44:41.882Z,955.9
2019-03-04T02:45:51.813Z,955.85
2019-03-04T02:47:01.747Z,955.82
2019-03-04T02:48:11.703Z,955.83
2019-03-04T02:49:21.647Z,955.83
2019-03-04T02:50:31.586Z,955.85
2019-03-04T02:51:41.533Z,955.87
2019-03-04T02:52:51.501Z,955.84
2019-03-04T02:54:01.488Z,955.82
2019-03-04T02:55:11.427Z,955.79
2019-03-04T02:56:21.373Z,955.77
2019-03-04T02:57:31.309Z,955.72
2019-03-04T02:58:41.254Z,955.74
2019-03-04T02:59:51.258Z,955.75
2019-03-04T03:01:01.210Z,955.7
2019-03-04T03:02:11.262Z,955.73
2019-03-04T03:03:21.196Z,955.73
2019-03-04T03:04:31.138Z,955.74
2019-03-04T03:05:41.111Z,955.74
2019-03-04T03:06:50.793Z,955.72
2019-03-04T03:08:00.729Z,955.7
2019-03-04T03:09:10.702Z,955.68
2019-03-04T03:10:20.647Z,955.66
2019-03-04T03:11:30.689Z,955.66
2019-03-04T03:12:40.653Z,955.62
2019-03-04T03:13:50.630Z,955.65
2019-03-04T03:15:00.602Z,955.6
2019-03-04T03:16:10.691Z,955.6
2019-03-04T03:17:20.665Z,955.57
2019-03-04T03:18:30.630Z,955.6
2019-03-04T03:19:40.559Z,955.62
2019-03-04T03:20:50.514Z,955.57
2019-03-04T03:22:00.200Z,955.6
2019-03-04T03:23:10.187Z,955.56
2019-03-04T03:24:20.136Z,955.49
2019-03-04T03:25:30.091Z,955.52
2019-03-04T03:26:40.067Z,955.48
2019-03-04T03:27:49.989Z,955.46
2019-03-04T03:29:00.026Z,955.4
2019-03-04T03:30:09.957Z,955.41
2019-03-04T03:31:20.010Z,955.4
2019-03-04T03:32:30.012Z,955.38
2019-03-04T03:33:40.076Z,955.37
2019-03-04T03:34:50.182Z,955.35
2019-03-04T03:36:00.246Z,955.35
2019-03-04T03:37:10.186Z,955.34
2019-03-04T03:38:20.133Z,955.35
2019-03-04T03:39:29.823Z,955.31
2019-03-04T03:40:39.618Z,955.3
2019-03-04T03:41:49.594Z,955.28
2019-03-04T03:42:59.552Z,955.22
2019-03-04T03:44:09.246Z,955.22
2019-03-04T03:45:18.920Z,955.23
2019-03-04T03:46:28.965Z,955.21
2019-03-04T03:47:38.886Z,955.23
2019-03-04T03:48:48.882Z,955.2
2019-03-04T03:49:58.830Z,955.2
2019-03-04T03:51:08.790Z,955.15
2019-03-04T03:52:18.734Z,955.15
2019-03-04T03:53:28.663Z,955.14
2019-03-04T03:54:38.611Z,955.17
2019-03-04T03:55:48.287Z,955.13
2019-03-04T03:56:58.218Z,955.14
2019-03-04T03:58:08.164Z,955.11
2019-03-04T03:59:18.092Z,955.11
2019-03-04T04:00:28.061Z,955.1
2019-03-04T04:01:38.015Z,955.08
2019-03-04T04:02:47.964Z,955.1
2019-03-04T04:03:58.021Z,955.12
2019-03-04T04:05:07.963Z,955.05
2019-03-04T04:06:17.922Z,955.06
2019-03-04T04:07:27.846Z,955.05
2019-03-04T04:08:37.792Z,955.06
2019-03-04T04:09:47.825Z,955.01
2019-03-04T04:10:57.777Z,955
2019-03-04T04:12:07.708Z,954.97
2019-03-04T04:13:17.631Z,954.93
2019-03-04T04:14:29.269Z,954.91
2019-03-04T04:15:39.474Z,954.88
2019-03-04T04:16:49.420Z,954.89
2019-03-04T04:17:59.350Z,954.88
2019-03-04T04:19:09.287Z,954.88
2019-03-04T04:20:19.276Z,954.91
2019-03-04T04:21:29.386Z,954.87
2019-03-04T04:22:39.328Z,954.91
2019-03-04T04:23:49.267Z,954.84
2019-03-04T04:24:59.195Z,954.87
2019-03-04T04:26:09.125Z,954.84
2019-03-04T04:27:19.152Z,954.85
2019-03-04T04:28:29.084Z,954.81
2019-03-04T04:29:39.021Z,954.82
2019-03-04T04:30:48.958Z,954.84
2019-03-04T04:31:58.892Z,954.81
2019-03-04T04:33:08.906Z,954.8
2019-03-04T04:34:18.856Z,954.78
2019-03-04T04:35:28.866Z,954.76
2019-03-04T04:36:38.797Z,954.74
2019-03-04T04:37:48.463Z,954.72
2019-03-04T04:38:58.474Z,954.72
2019-03-04T04:40:09.228Z,954.77
2019-03-04T04:41:19.161Z,954.74
2019-03-04T04:42:29.080Z,954.77
2019-03-04T04:43:38.996Z,954.73
2019-03-04T04:44:49.013Z,954.76
2019-03-04T04:45:58.946Z,954.73
2019-03-04T04:47:08.865Z,954.71
2019-03-04T04:48:18.783Z,954.7
2019-03-04T04:49:28.755Z,954.7
2019-03-04T04:50:38.754Z,954.68
2019-03-04T04:51:48.674Z,954.69
2019-03-04T04:52:58.339Z,954.64
2019-03-04T04:54:08.265Z,954.67
2019-03-04T04:55:18.182Z,954.59
2019-03-04T04:56:27.903Z,954.64
2019-03-04T04:57:37.834Z,954.62
2019-03-04T04:58:47.761Z,954.65
2019-03-04T04:59:57.679Z,954.64
2019-03-04T05:01:07.821Z,954.62
2019-03-04T05:02:17.841Z,954.62
2019-03-04T05:03:27.760Z,954.61
2019-03-04T05:04:37.679Z,954.6
2019-03-04T05:05:47.597Z,954.59
2019-03-04T05:06:57.513Z,954.56
2019-03-04T05:08:07.482Z,954.59
2019-03-04T05:09:17.411Z,954.59
2019-03-04T05:10:27.329Z,954.56
2019-03-04T05:11:37.261Z,954.54
2019-03-04T05:12:47.183Z,954.48
2019-03-04T05:13:57.104Z,954.51
2019-03-04T05:15:07.047Z,954.49
2019-03-04T05:16:16.971Z,954.48
2019-03-04T05:17:26.893Z,954.44
2019-03-04T05:18:36.845Z,954.47
2019-03-04T05:19:46.867Z,954.48
2019-03-04T05:20:56.788Z,954.42
2019-03-04T05:22:06.711Z,954.39
2019-03-04T05:23:16.641Z,954.37
2019-03-04T05:24:26.560Z,954.33
2019-03-04T05:25:37.408Z,954.33
2019-03-04T05:26:47.332Z,954.35
2019-03-04T05:27:57.250Z,954.33
2019-03-04T05:29:07.173Z,954.3
2019-03-04T05:30:17.115Z,954.29
2019-03-04T05:31:27.094Z,954.26
2019-03-04T05:32:37.026Z,954.28
2019-03-04T05:33:46.952Z,954.29
2019-03-04T05:34:56.622Z,954.27
2019-03-04T05:36:06.545Z,954.28
2019-03-04T05:37:16.532Z,954.25
2019-03-04T05:38:26.452Z,954.23
2019-03-04T05:39:36.374Z,954.21
2019-03-04T05:40:46.297Z,954.18
2019-03-04T05:41:56.220Z,954.15
2019-03-04T05:43:06.154Z,954.17
2019-03-04T05:44:16.080Z,954.16
2019-03-04T05:45:26.017Z,954.17
2019-03-04T05:46:35.941Z,954.16
2019-03-04T05:47:45.862Z,954.17
2019-03-04T05:48:55.904Z,954.14
2019-03-04T05:50:05.832Z,954.18
2019-03-04T05:51:15.502Z,954.12
2019-03-04T05:52:25.423Z,954.13
2019-03-04T05:53:35.353Z,954.12
2019-03-04T05:54:45.335Z,954.13
2019-03-04T05:55:55.258Z,954.11
2019-03-04T05:57:05.181Z,954.1
2019-03-04T05:58:15.132Z,954.04
2019-03-04T05:59:25.074Z,954.05
2019-03-04T06:00:35.094Z,954.03
2019-03-04T06:01:45.015Z,954
2019-03-04T06:02:54.939Z,954.02
2019-03-04T06:04:04.858Z,953.99
2019-03-04T06:05:14.776Z,954
2019-03-04T06:06:24.774Z,954.01
2019-03-04T06:07:34.687Z,954
2019-03-04T06:08:44.621Z,953.97
2019-03-04T06:09:54.588Z,953.99
2019-03-04T06:11:04.557Z,953.94
2019-03-04T06:12:14.626Z,954
2019-03-04T06:13:24.541Z,953.98
2019-03-04T06:14:34.465Z,953.98
2019-03-04T06:15:44.384Z,953.98
2019-03-04T06:16:54.305Z,953.98
2019-03-04T06:18:04.222Z,953.92
2019-03-04T06:19:14.149Z,953.9
2019-03-04T06:20:24.070Z,953.9
2019-03-04T06:21:33.993Z,953.85
2019-03-04T06:22:43.947Z,953.86
2019-03-04T06:23:53.938Z,953.85
2019-03-04T06:25:03.861Z,953.84
2019-03-04T06:26:15.136Z,953.78
2019-03-04T06:27:25.071Z,953.75
2019-03-04T06:28:35.000Z,953.82
2019-03-04T06:29:44.965Z,953.76
2019-03-04T06:30:54.922Z,953.75
2019-03-04T06:32:04.844Z,953.77
2019-03-04T06:33:14.763Z,953.73
2019-03-04T06:34:24.693Z,953.75
2019-03-04T06:35:34.762Z,953.75
2019-03-04T06:36:44.684Z,953.77
2019-03-04T06:37:55.959Z,953.76
2019-03-04T06:39:05.630Z,953.73
2019-03-04T06:40:15.553Z,953.77
2019-03-04T06:41:25.499Z,953.73
2019-03-04T06:42:35.420Z,953.77
2019-03-04T06:43:45.346Z,953.73
2019-03-04T06:44:55.280Z,953.7
2019-03-04T06:46:05.243Z,953.74
2019-03-04T06:47:15.269Z,953.68
2019-03-04T06:48:25.185Z,953.65
2019-03-04T06:49:35.115Z,953.71
2019-03-04T06:50:45.028Z,953.66
2019-03-04T06:51:54.975Z,953.69
2019-03-04T06:53:04.940Z,953.65
2019-03-04T06:54:14.861Z,953.68
2019-03-04T06:55:24.791Z,953.65
2019-03-04T06:56:34.712Z,953.65
2019-03-04T06:57:44.632Z,953.69
2019-03-04T06:58:54.659Z,953.66
2019-03-04T07:00:04.599Z,953.62
2019-03-04T07:01:14.525Z,953.64
2019-03-04T07:02:24.447Z,953.62
2019-03-04T07:03:34.559Z,953.61
2019-03-04T07:04:44.547Z,953.61
2019-03-04T07:05:54.467Z,953.57
2019-03-04T07:07:04.389Z,953.57
2019-03-04T07:08:14.361Z,953.56
2019-03-04T07:09:24.307Z,953.57
2019-03-04T07:10:34.275Z,953.54
2019-03-04T07:11:43.952Z,953.54
2019-03-04T07:12:53.878Z,953.56
2019-03-04T07:14:03.825Z,953.55
2019-03-04T07:15:13.756Z,953.55
2019-03-04T07:16:23.731Z,953.6
2019-03-04T07:17:35.051Z,953.58
2019-03-04T07:18:44.992Z,953.52
2019-03-04T07:19:54.923Z,953.54
2019-03-04T07:21:04.855Z,953.56
2019-03-04T07:22:14.882Z,953.59
2019-03-04T07:23:24.567Z,953.56
2019-03-04T07:24:34.498Z,953.57
2019-03-04T07:25:44.421Z,953.55
2019-03-04T07:26:54.346Z,953.5
2019-03-04T07:28:04.277Z,953.51
2019-03-04T07:29:15.050Z,953.48
2019-03-04T07:30:24.876Z,953.49
2019-03-04T07:31:34.796Z,953.45
2019-03-04T07:32:44.716Z,953.46
2019-03-04T07:33:54.793Z,953.47
2019-03-04T07:35:04.726Z,953.47
2019-03-04T07:36:14.646Z,953.43
2019-03-04T07:37:24.320Z,953.43
2019-03-04T07:38:34.247Z,953.41
2019-03-04T07:39:44.324Z,953.37
2019-03-04T07:40:54.257Z,953.34
2019-03-04T07:42:04.181Z,953.36
2019-03-04T07:43:14.122Z,953.35
2019-03-04T07:44:24.043Z,953.38
2019-03-04T07:45:34.078Z,953.41
2019-03-04T07:46:44.002Z,953.36
2019-03-04T07:47:53.921Z,953.37
2019-03-04T07:49:05.467Z,953.31
2019-03-04T07:50:15.392Z,953.33
2019-03-04T07:51:25.413Z,953.32
2019-03-04T07:52:35.333Z,953.33
2019-03-04T07:53:46.492Z,953.35
2019-03-04T07:54:56.598Z,953.34
2019-03-04T07:56:06.520Z,953.34
2019-03-04T07:57:16.549Z,953.33
2019-03-04T07:58:26.512Z,953.35
2019-03-04T07:59:36.452Z,953.32
2019-03-04T08:00:46.374Z,953.34
2019-03-04T08:01:56.317Z,953.29
2019-03-04T08:03:06.346Z,953.29
2019-03-04T08:04:16.270Z,953.26
2019-03-04T08:05:25.953Z,953.26
2019-03-04T08:06:35.882Z,953.27
2019-03-04T08:07:45.821Z,953.25
2019-03-04T08:08:55.903Z,953.22
2019-03-04T08:10:05.823Z,953.24
2019-03-04T08:11:15.771Z,953.26
2019-03-04T08:12:25.698Z,953.25
2019-03-04T08:13:35.620Z,953.21
2019-03-04T08:14:45.563Z,953.23
2019-03-04T08:15:55.251Z,953.25
2019-03-04T08:17:05.175Z,953.21
2019-03-04T08:18:15.099Z,953.25
2019-03-04T08:19:25.026Z,953.21
2019-03-04T08:20:35.114Z,953.21
2019-03-04T08:21:45.038Z,953.18
2019-03-04T08:22:54.960Z,953.23
2019-03-04T08:24:04.888Z,953.2
2019-03-04T08:25:14.811Z,953.21
2019-03-04T08:26:24.894Z,953.21
2019-03-04T08:27:34.820Z,953.18
2019-03-04T08:28:44.747Z,953.16
2019-03-04T08:29:54.687Z,953.15
2019-03-04T08:31:04.275Z,953.11
2019-03-04T08:32:13.947Z,953.09
2019-03-04T08:33:23.866Z,953.1
2019-03-04T08:34:33.788Z,953.11
2019-03-04T08:35:43.705Z,953.12
2019-03-04T08:36:53.631Z,953.11
2019-03-04T08:38:03.649Z,953.09
2019-03-04T08:39:13.576Z,953.1
2019-03-04T08:40:25.747Z,953.07
2019-03-04T08:41:35.677Z,953.01
2019-03-04T08:42:45.610Z,953.08
2019-03-04T08:43:55.388Z,953.06
2019-03-04T08:45:05.311Z,953
2019-03-04T08:46:15.228Z,953.05
2019-03-04T08:47:25.151Z,953.01
2019-03-04T08:48:35.076Z,952.96
2019-03-04T08:49:45.001Z,952.97
2019-03-04T08:50:54.926Z,952.9
2019-03-04T08:52:05.259Z,952.93
2019-03-04T08:53:15.192Z,952.92
2019-03-04T08:54:24.887Z,952.9
2019-03-04T08:55:34.825Z,952.86
2019-03-04T08:56:45.895Z,952.87
2019-03-04T08:58:04.294Z,952.83
2019-03-04T08:59:14.219Z,952.83
2019-03-04T09:00:24.151Z,952.84
2019-03-04T09:01:34.295Z,952.85
2019-03-04T09:02:44.260Z,952.84
2019-03-04T09:03:54.184Z,952.82
2019-03-04T09:05:04.111Z,952.86
2019-03-04T09:06:14.031Z,952.8
2019-03-04T09:07:24.000Z,952.78
2019-03-04T09:08:33.925Z,952.74
2019-03-04T09:09:43.852Z,952.73
2019-03-04T09:10:53.783Z,952.73
2019-03-04T09:12:03.706Z,952.67
2019-03-04T09:13:13.777Z,952.66
2019-03-04T09:14:23.704Z,952.65
2019-03-04T09:15:33.662Z,952.67
2019-03-04T09:16:43.596Z,952.67
2019-03-04T09:17:53.516Z,952.63
2019-03-04T09:19:03.594Z,952.68
2019-03-04T09:20:13.519Z,952.67
2019-03-04T09:21:23.440Z,952.64
2019-03-04T09:22:33.369Z,952.6
2019-03-04T09:23:43.285Z,952.59
2019-03-04T09:24:55.404Z,952.58
2019-03-04T09:26:05.464Z,952.58
2019-03-04T09:27:15.140Z,952.53
2019-03-04T09:28:25.136Z,952.52
2019-03-04T09:29:35.068Z,952.5
2019-03-04T09:30:47.314Z,952.52
2019-03-04T09:31:57.239Z,952.5
2019-03-04T09:33:07.179Z,952.52
2019-03-04T09:34:17.108Z,952.49
2019-03-04T09:35:27.028Z,952.46
2019-03-04T09:36:37.989Z,952.5
2019-03-04T09:37:47.935Z,952.48
2019-03-04T09:38:57.874Z,952.47
2019-03-04T09:40:07.806Z,952.48
2019-03-04T09:41:17.476Z,952.46
2019-03-04T09:42:27.498Z,952.42
2019-03-04T09:43:37.432Z,952.43
2019-03-04T09:44:47.394Z,952.41
2019-03-04T09:45:57.321Z,952.41
2019-03-04T09:47:07.238Z,952.41
2019-03-04T09:48:17.314Z,952.42
2019-03-04T09:49:27.042Z,952.44
2019-03-04T09:50:36.960Z,952.43
2019-03-04T09:51:46.883Z,952.42
2019-03-04T09:52:56.810Z,952.42
2019-03-04T09:54:06.901Z,952.41
2019-03-04T09:55:16.824Z,952.42
2019-03-04T09:56:26.743Z,952.41
2019-03-04T09:57:36.682Z,952.43
2019-03-04T09:58:46.614Z,952.47
2019-03-04T09:59:56.548Z,952.38
2019-03-04T10:01:06.529Z,952.35
2019-03-04T10:02:16.473Z,952.33
2019-03-04T10:03:26.402Z,952.33
2019-03-04T10:04:36.328Z,952.33
2019-03-04T10:05:46.247Z,952.3
2019-03-04T10:06:56.170Z,952.33
2019-03-04T10:08:06.118Z,952.24
2019-03-04T10:09:16.037Z,952.27
2019-03-04T10:10:25.714Z,952.23
2019-03-04T10:11:35.640Z,952.22
2019-03-04T10:12:45.306Z,952.21
2019-03-04T10:13:55.228Z,952.24
2019-03-04T10:15:08.142Z,952.2
2019-03-04T10:16:20.919Z,952.19
2019-03-04T10:17:30.974Z,952.18
2019-03-04T10:18:40.903Z,952.2
2019-03-04T10:19:50.844Z,952.22
2019-03-04T10:21:00.768Z,952.2
2019-03-04T10:22:10.452Z,952.18
2019-03-04T10:23:20.476Z,952.18
2019-03-04T10:24:30.406Z,952.19
2019-03-04T10:25:40.328Z,952.15
2019-03-04T10:26:50.254Z,952.17
2019-03-04T10:28:00.172Z,952.12
2019-03-04T10:29:10.199Z,952.16
2019-03-04T10:30:19.866Z,952.13
2019-03-04T10:31:29.796Z,952.09
2019-03-04T10:32:39.718Z,952.09
2019-03-04T10:33:49.637Z,952.05
2019-03-04T10:34:59.661Z,952.06
2019-03-04T10:36:09.589Z,952
2019-03-04T10:37:19.509Z,951.96
2019-03-04T10:38:29.447Z,951.97
2019-03-04T10:39:39.125Z,951.94
2019-03-04T10:40:49.152Z,951.91
2019-03-04T10:42:00.860Z,951.87
2019-03-04T10:43:10.782Z,951.86
2019-03-04T10:44:20.723Z,951.87
2019-03-04T10:45:33.528Z,951.78
2019-03-04T10:46:43.458Z,951.79
2019-03-04T10:47:53.379Z,951.79
2019-03-04T10:49:03.301Z,951.78
2019-03-04T10:50:13.225Z,951.75
2019-03-04T10:51:23.147Z,951.76
2019-03-04T10:52:33.173Z,951.78
2019-03-04T10:53:43.103Z,951.83
2019-03-04T10:54:52.811Z,951.8
2019-03-04T10:56:02.751Z,951.83
2019-03-04T10:57:12.670Z,951.8
2019-03-04T10:58:22.595Z,951.8
2019-03-04T10:59:32.529Z,951.83
2019-03-04T11:00:42.460Z,951.77
2019-03-04T11:01:52.389Z,951.81
2019-03-04T11:03:02.313Z,951.8
2019-03-04T11:04:12.337Z,951.77
2019-03-04T11:05:22.290Z,951.77
2019-03-04T11:06:32.244Z,951.75
2019-03-04T11:07:42.170Z,951.71
2019-03-04T11:08:52.091Z,951.73
2019-03-04T11:10:02.024Z,951.71
2019-03-04T11:11:11.960Z,951.7
2019-03-04T11:12:30.371Z,951.71
2019-03-04T11:13:40.306Z,951.71
2019-03-04T11:14:50.249Z,951.71
2019-03-04T11:16:00.274Z,951.74
2019-03-04T11:17:10.211Z,951.7
2019-03-04T11:18:20.131Z,951.7
2019-03-04T11:19:30.058Z,951.68
2019-03-04T11:20:39.990Z,951.61
2019-03-04T11:21:49.912Z,951.64
2019-03-04T11:22:59.844Z,951.63
2019-03-04T11:24:09.768Z,951.61
2019-03-04T11:25:19.690Z,951.57
2019-03-04T11:26:29.611Z,951.5
2019-03-04T11:27:39.588Z,951.52
2019-03-04T11:28:49.540Z,951.5
2019-03-04T11:29:59.477Z,951.56
2019-03-04T11:31:09.410Z,951.54
2019-03-04T11:32:19.344Z,951.52
2019-03-04T11:33:29.264Z,951.57
2019-03-04T11:34:39.191Z,951.54
2019-03-04T11:35:50.338Z,951.52
2019-03-04T11:37:00.272Z,951.56
2019-03-04T11:38:10.202Z,951.48
2019-03-04T11:39:20.229Z,951.51
2019-03-04T11:40:30.171Z,951.5
2019-03-04T11:41:40.100Z,951.52
2019-03-04T11:42:50.664Z,951.45
2019-03-04T11:44:00.733Z,951.47
2019-03-04T11:45:10.708Z,951.4
2019-03-04T11:46:20.632Z,951.4
2019-03-04T11:47:30.627Z,951.4
2019-03-04T11:48:40.548Z,951.39
2019-03-04T11:49:53.335Z,951.38
2019-03-04T11:51:03.482Z,951.4
2019-03-04T11:52:13.416Z,951.4
2019-03-04T11:53:23.375Z,951.35
2019-03-04T11:54:33.313Z,951.36
2019-03-04T11:55:43.241Z,951.36
2019-03-04T11:56:54.117Z,951.35
2019-03-04T11:58:04.036Z,951.36
2019-03-04T11:59:13.957Z,951.34
2019-03-04T12:00:23.680Z,951.36
2019-03-04T12:01:33.604Z,951.4
2019-03-04T12:02:43.545Z,951.33
2019-03-04T12:03:53.469Z,951.32
2019-03-04T12:05:03.397Z,951.3
2019-03-04T12:06:13.322Z,951.36
2019-03-04T12:07:23.241Z,951.36
2019-03-04T12:08:33.163Z,951.31
2019-03-04T12:09:43.157Z,951.31
2019-03-04T12:10:53.145Z,951.34
2019-03-04T12:12:03.090Z,951.36
2019-03-04T12:13:13.009Z,951.37
2019-03-04T12:14:23.041Z,951.39
2019-03-04T12:15:32.966Z,951.36
2019-03-04T12:16:42.641Z,951.34
2019-03-04T12:17:52.608Z,951.36
2019-03-04T12:19:02.541Z,951.35
2019-03-04T12:20:12.471Z,951.32
2019-03-04T12:21:22.226Z,951.29
2019-03-04T12:22:31.921Z,951.32
2019-03-04T12:23:41.855Z,951.3
2019-03-04T12:24:51.781Z,951.3
2019-03-04T12:26:01.759Z,951.29
2019-03-04T12:27:11.686Z,951.24
2019-03-04T12:28:21.618Z,951.15
2019-03-04T12:29:31.540Z,951.12
2019-03-04T12:30:41.466Z,951.03
2019-03-04T12:31:51.445Z,950.98
2019-03-04T12:33:01.371Z,950.93
2019-03-04T12:34:11.327Z,950.88
2019-03-04T12:35:29.773Z,950.91
2019-03-04T12:36:39.695Z,950.91
2019-03-04T12:37:50.469Z,950.94
2019-03-04T12:39:00.400Z,951
2019-03-04T12:40:10.344Z,950.96
2019-03-04T12:41:20.271Z,950.96
2019-03-04T12:42:30.205Z,950.96
2019-03-04T12:43:40.185Z,950.96
2019-03-04T12:44:50.112Z,950.95
2019-03-04T12:46:00.041Z,950.94
2019-03-04T12:47:09.976Z,950.93
2019-03-04T12:48:21.694Z,950.89
2019-03-04T12:49:31.723Z,950.89
2019-03-04T12:50:41.692Z,950.82
2019-03-04T12:51:51.388Z,950.74
2019-03-04T12:53:01.314Z,950.69
2019-03-04T12:54:11.250Z,950.6
2019-03-04T12:55:20.969Z,950.57
2019-03-04T12:56:30.906Z,950.58
2019-03-04T12:57:40.848Z,950.6
2019-03-04T12:58:50.783Z,950.61
2019-03-04T13:00:00.712Z,950.61
2019-03-04T13:01:10.802Z,950.62
2019-03-04T13:02:20.733Z,950.58
2019-03-04T13:03:30.669Z,950.55
2019-03-04T13:04:40.601Z,950.52
2019-03-04T13:05:50.525Z,950.53
2019-03-04T13:07:00.250Z,950.48
2019-03-04T13:08:10.232Z,950.49
2019-03-04T13:09:20.159Z,950.45
2019-03-04T13:10:31.735Z,950.48
2019-03-04T13:11:41.527Z,950.48
2019-03-04T13:12:51.603Z,950.56
2019-03-04T13:14:01.533Z,950.55
2019-03-04T13:15:11.454Z,950.55
2019-03-04T13:16:21.376Z,950.5
2019-03-04T13:17:31.302Z,950.51
2019-03-04T13:18:41.276Z,950.45
2019-03-04T13:19:51.203Z,950.47
2019-03-04T13:21:01.127Z,950.46
2019-03-04T13:22:11.054Z,950.44
2019-03-04T13:23:20.975Z,950.44
2019-03-04T13:24:30.943Z,950.4
2019-03-04T13:25:40.866Z,950.4
2019-03-04T13:26:52.590Z,950.39
2019-03-04T13:28:08.033Z,950.4
2019-03-04T13:29:18.403Z,950.4
2019-03-04T13:30:28.344Z,950.44
2019-03-04T13:31:38.264Z,950.48
2019-03-04T13:32:48.193Z,950.46
2019-03-04T13:33:58.116Z,950.47
2019-03-04T13:35:08.036Z,950.45
2019-03-04T13:36:27.440Z,950.49
2019-03-04T13:37:38.011Z,950.45
2019-03-04T13:38:47.992Z,950.43
2019-03-04T13:39:57.928Z,950.43
2019-03-04T13:41:07.905Z,950.43
2019-03-04T13:42:17.996Z,950.44
2019-03-04T13:43:27.920Z,950.39
2019-03-04T13:44:37.843Z,950.39
2019-03-04T13:45:47.765Z,950.4
2019-03-04T13:46:57.692Z,950.37
2019-03-04T13:48:07.674Z,950.35
2019-03-04T13:49:17.593Z,950.38
2019-03-04T13:50:27.518Z,950.38
2019-03-04T13:51:37.441Z,950.39
2019-03-04T13:52:47.368Z,950.39
2019-03-04T13:53:57.403Z,950.39
2019-03-04T13:55:07.329Z,950.37
2019-03-04T13:56:17.260Z,950.39
2019-03-04T13:57:27.188Z,950.39
2019-03-04T13:58:37.105Z,950.41
2019-03-04T13:59:47.089Z,950.39
2019-03-04T14:00:57.013Z,950.39
2019-03-04T14:02:06.929Z,950.4
2019-03-04T14:03:16.860Z,950.36
2019-03-04T14:04:26.783Z,950.38
2019-03-04T14:05:36.764Z,950.32
2019-03-04T14:06:46.684Z,950.36
2019-03-04T14:07:58.768Z,950.3
2019-03-04T14:09:08.689Z,950.3
2019-03-04T14:10:18.616Z,950.35
2019-03-04T14:11:28.639Z,950.32
2019-03-04T14:12:38.577Z,950.32
2019-03-04T14:13:48.254Z,950.32
2019-03-04T14:14:58.180Z,950.26
2019-03-04T14:16:08.133Z,950.28
2019-03-04T14:17:18.165Z,950.24
2019-03-04T14:18:28.089Z,950.24
2019-03-04T14:19:38.026Z,950.21
2019-03-04T14:20:49.439Z,950.2
2019-03-04T14:21:59.364Z,950.21
2019-03-04T14:23:09.342Z,950.26
2019-03-04T14:24:19.273Z,950.26
2019-03-04T14:25:29.191Z,950.24
2019-03-04T14:26:39.118Z,950.29
2019-03-04T14:27:49.055Z,950.31
2019-03-04T14:28:58.826Z,950.3
2019-03-04T14:30:08.754Z,950.28
2019-03-04T14:31:18.680Z,950.26
2019-03-04T14:32:28.600Z,950.27
2019-03-04T14:33:38.521Z,950.23
2019-03-04T14:34:48.568Z,950.24
2019-03-04T14:35:58.509Z,950.21
2019-03-04T14:37:08.430Z,950.21
2019-03-04T14:38:18.366Z,950.22